createdAt,value
2022-12-20T00:01:44.090Z,-13.47
2022-12-20T00:03:48.971Z,-13.51
2022-12-20T00:05:51.706Z,-13.52
2022-12-20T00:07:54.317Z,-13.53
2022-12-20T00:09:57.002Z,-13.52
2022-12-20T00:11:59.682Z,-13.57
2022-12-20T00:14:02.289Z,-13.55
2022-12-20T00:16:18.485Z,-13.63
2022-12-20T00:18:21.096Z,-13.57
2022-12-20T00:20:23.977Z,-13.55
2022-12-20T00:22:26.617Z,-13.55
2022-12-20T00:24:30.675Z,-13.56
2022-12-20T00:26:34.939Z,-13.60
2022-12-20T00:28:38.596Z,-13.60
2022-12-20T00:30:41.122Z,-13.63
2022-12-20T00:32:44.995Z,-13.60
2022-12-20T00:34:47.646Z,-13.60
2022-12-20T00:36:50.348Z,-13.60
2022-12-20T00:38:54.873Z,-13.61
2022-12-20T00:41:13.268Z,-13.62
2022-12-20T00:43:15.877Z,-13.66
2022-12-20T00:45:18.474Z,-13.69
2022-12-20T00:47:21.152Z,-13.65
2022-12-20T00:49:23.771Z,-13.69
2022-12-20T00:51:30.333Z,-13.66
2022-12-20T00:53:33.932Z,-13.65
2022-12-20T00:55:42.646Z,-13.70
2022-12-20T00:57:45.229Z,-13.75
2022-12-20T00:59:48.022Z,-13.78
2022-12-20T01:01:50.752Z,-13.75
2022-12-20T01:03:53.963Z,-13.71
2022-12-20T01:05:59.579Z,-13.72
2022-12-20T01:08:02.316Z,-13.68
2022-12-20T01:10:05.277Z,-13.70
2022-12-20T01:12:08.360Z,-13.69
2022-12-20T01:14:14.145Z,-13.65
2022-12-20T01:16:20.398Z,-13.64
2022-12-20T01:18:23.333Z,-13.65
2022-12-20T01:20:25.897Z,-13.64
2022-12-20T01:22:28.640Z,-13.65
2022-12-20T01:24:31.349Z,-13.63
2022-12-20T01:26:33.988Z,-13.70
2022-12-20T01:28:39.147Z,-13.65
2022-12-20T01:30:41.746Z,-13.70
2022-12-20T01:32:44.812Z,-13.70
2022-12-20T01:34:47.451Z,-13.75
2022-12-20T01:36:50.217Z,-13.77
2022-12-20T01:39:08.286Z,-13.78
2022-12-20T01:41:16.912Z,-13.81
2022-12-20T01:43:20.960Z,-13.80
2022-12-20T01:45:28.556Z,-13.79
2022-12-20T01:47:34.947Z,-13.86
2022-12-20T01:49:48.332Z,-13.94
2022-12-20T01:51:59.010Z,-13.88
2022-12-20T01:54:14.644Z,-13.91
2022-12-20T01:56:17.547Z,-13.96
2022-12-20T01:58:21.509Z,-13.95
2022-12-20T02:00:24.744Z,-13.96
2022-12-20T02:02:28.144Z,-13.98
2022-12-20T02:04:31.260Z,-13.98
2022-12-20T02:06:33.921Z,-13.97
2022-12-20T02:08:36.573Z,-13.94
2022-12-20T02:10:47.935Z,-13.94
2022-12-20T02:12:56.662Z,-13.98
2022-12-20T02:15:49.694Z,-14.01
2022-12-20T02:18:10.453Z,-14.02
2022-12-20T02:20:31.037Z,-13.99
2022-12-20T02:23:00.104Z,-13.97
2022-12-20T02:25:33.963Z,-14.02
2022-12-20T02:27:54.966Z,-14.00
2022-12-20T02:30:14.401Z,-14.02
2022-12-20T02:32:24.915Z,-14.00
2022-12-20T02:34:30.195Z,-14.08
2022-12-20T02:36:32.889Z,-14.01
2022-12-20T02:38:38.387Z,-14.05
2022-12-20T02:40:44.054Z,-14.03
2022-12-20T02:42:47.493Z,-14.04
2022-12-20T02:45:16.528Z,-14.03
2022-12-20T02:47:24.783Z,-14.05
2022-12-20T02:49:32.141Z,-14.02
2022-12-20T02:51:35.227Z,-13.97
2022-12-20T02:53:38.901Z,-13.99
2022-12-20T02:55:55.104Z,-14.00
2022-12-20T02:58:06.508Z,-13.99
2022-12-20T03:00:13.805Z,-13.94
2022-12-20T03:02:17.186Z,-13.93
2022-12-20T03:04:24.584Z,-13.87
2022-12-20T03:06:27.812Z,-13.84
2022-12-20T03:08:31.123Z,-13.82
2022-12-20T03:10:33.677Z,-13.90
2022-12-20T03:12:36.383Z,-13.97
2022-12-20T03:14:40.070Z,-13.96
2022-12-20T03:16:42.745Z,-13.92
2022-12-20T03:18:46.361Z,-13.96
2022-12-20T03:20:48.981Z,-14.00
2022-12-20T03:22:51.679Z,-13.99
2022-12-20T03:24:54.332Z,-14.06
2022-12-20T03:26:56.995Z,-14.02
2022-12-20T03:28:59.631Z,-13.96
2022-12-20T03:31:02.344Z,-13.96
2022-12-20T03:33:05.035Z,-13.95
2022-12-20T03:35:08.096Z,-13.95
2022-12-20T03:37:10.818Z,-13.95
2022-12-20T03:39:13.442Z,-13.92
2022-12-20T03:41:26.806Z,-14.14
2022-12-20T03:43:29.395Z,-13.94
2022-12-20T03:45:31.995Z,-13.93
2022-12-20T03:47:34.729Z,-13.90
2022-12-20T03:49:37.388Z,-13.96
2022-12-20T03:51:39.994Z,-13.97
2022-12-20T03:53:42.977Z,-13.99
2022-12-20T03:55:47.603Z,-13.96
2022-12-20T03:57:50.235Z,-13.94
2022-12-20T03:59:54.416Z,-13.94
2022-12-20T04:01:57.187Z,-13.92
2022-12-20T04:04:00.043Z,-13.94
2022-12-20T04:06:02.796Z,-13.97
2022-12-20T04:08:05.610Z,-14.05
2022-12-20T04:10:08.819Z,-14.05
2022-12-20T04:12:11.632Z,-14.16
2022-12-20T04:14:14.332Z,-14.03
2022-12-20T04:16:22.217Z,-13.99
2022-12-20T04:18:24.864Z,-14.00
2022-12-20T04:20:27.499Z,-13.99
2022-12-20T04:22:30.110Z,-13.97
2022-12-20T04:24:32.827Z,-14.02
2022-12-20T04:26:35.562Z,-14.10
2022-12-20T04:28:38.208Z,-14.14
2022-12-20T04:30:40.832Z,-14.18
2022-12-20T04:32:43.619Z,-14.14
2022-12-20T04:34:46.196Z,-14.17
2022-12-20T04:36:49.268Z,-14.18
2022-12-20T04:38:52.304Z,-14.23
2022-12-20T04:40:56.110Z,-14.27
2022-12-20T04:42:58.820Z,-14.28
2022-12-20T04:45:01.577Z,-14.36
2022-12-20T04:47:06.666Z,-14.41
2022-12-20T04:49:09.243Z,-14.48
2022-12-20T04:51:11.987Z,-14.47
2022-12-20T04:53:33.726Z,-14.52
2022-12-20T04:55:40.567Z,-14.61
2022-12-20T04:57:43.069Z,-14.62
2022-12-20T04:59:45.735Z,-14.62
2022-12-20T05:01:48.403Z,-14.68
2022-12-20T05:03:51.572Z,-14.71
2022-12-20T05:05:54.609Z,-14.72
2022-12-20T05:07:57.230Z,-14.76
2022-12-20T05:10:00.084Z,-14.76
2022-12-20T05:12:05.045Z,-14.82
2022-12-20T05:14:08.941Z,-14.83
2022-12-20T05:16:12.121Z,-14.87
2022-12-20T05:18:14.727Z,-14.91
2022-12-20T05:20:17.432Z,-15.04
2022-12-20T05:22:38.694Z,-15.03
2022-12-20T05:25:02.508Z,-15.04
2022-12-20T05:27:06.178Z,-14.98
2022-12-20T05:29:08.904Z,-14.89
2022-12-20T05:31:11.637Z,-14.90
2022-12-20T05:33:14.325Z,-14.85
2022-12-20T05:35:17.305Z,-14.79
2022-12-20T05:37:20.109Z,-14.81
2022-12-20T05:39:22.671Z,-14.76
2022-12-20T05:41:25.496Z,-14.75
2022-12-20T05:43:28.171Z,-14.71
2022-12-20T05:45:30.811Z,-14.69
2022-12-20T05:47:34.127Z,-14.65
2022-12-20T05:49:36.776Z,-14.63
2022-12-20T05:51:39.423Z,-14.66
2022-12-20T05:53:42.072Z,-14.70
2022-12-20T05:55:52.822Z,-14.62
2022-12-20T05:57:55.410Z,-14.59
2022-12-20T05:59:58.006Z,-14.53
2022-12-20T06:02:01.142Z,-14.43
2022-12-20T06:04:04.333Z,-14.29
2022-12-20T06:06:14.089Z,-14.22
2022-12-20T06:08:17.456Z,-14.16
2022-12-20T06:10:20.037Z,-14.10
2022-12-20T06:12:23.378Z,-14.12
2022-12-20T06:14:26.043Z,-14.10
2022-12-20T06:16:28.792Z,-14.14
2022-12-20T06:18:31.543Z,-14.07
2022-12-20T06:20:37.378Z,-14.06
2022-12-20T06:22:40.682Z,-13.88
2022-12-20T06:24:48.182Z,-13.86
2022-12-20T06:26:54.524Z,-13.74
2022-12-20T06:29:02.240Z,-13.69
2022-12-20T06:31:04.998Z,-13.59
2022-12-20T06:33:07.952Z,-13.53
2022-12-20T06:35:10.995Z,-13.49
2022-12-20T06:37:13.852Z,-13.40
2022-12-20T06:39:16.531Z,-13.39
2022-12-20T06:41:19.821Z,-13.35
2022-12-20T06:43:22.624Z,-13.35
2022-12-20T06:45:25.357Z,-13.31
2022-12-20T06:47:28.241Z,-13.29
2022-12-20T06:49:31.070Z,-13.26
2022-12-20T06:51:33.953Z,-13.24
2022-12-20T06:53:36.598Z,-13.18
2022-12-20T06:55:40.157Z,-13.19
2022-12-20T06:57:43.227Z,-13.26
2022-12-20T06:59:45.981Z,-13.31
2022-12-20T07:01:48.711Z,-13.42
2022-12-20T07:03:51.440Z,-13.38
2022-12-20T07:05:54.816Z,-13.42
2022-12-20T07:07:57.519Z,-13.37
2022-12-20T07:10:00.142Z,-13.26
2022-12-20T07:12:02.902Z,-13.23
2022-12-20T07:14:05.604Z,-13.20
2022-12-20T07:16:08.498Z,-13.16
2022-12-20T07:18:11.664Z,-13.08
2022-12-20T07:20:15.129Z,-13.05
2022-12-20T07:22:18.012Z,-12.97
2022-12-20T07:24:20.993Z,-13.02
2022-12-20T07:26:23.650Z,-13.00
2022-12-20T07:28:27.525Z,-12.97
2022-12-20T07:30:31.488Z,-12.92
2022-12-20T07:32:35.210Z,-13.00
2022-12-20T07:34:38.318Z,-13.00
2022-12-20T07:36:41.171Z,-12.82
2022-12-20T07:38:43.915Z,-12.77
2022-12-20T07:40:46.571Z,-12.71
2022-12-20T07:42:49.276Z,-12.65
2022-12-20T07:44:51.953Z,-12.54
2022-12-20T07:46:54.577Z,-12.41
2022-12-20T07:48:59.257Z,-12.33
2022-12-20T07:51:06.455Z,-12.27
2022-12-20T07:53:09.829Z,-12.19
2022-12-20T07:55:13.709Z,-12.13
2022-12-20T07:57:22.738Z,-12.06
2022-12-20T07:59:32.164Z,-11.97
2022-12-20T08:01:35.622Z,-11.95
2022-12-20T08:04:02.945Z,-11.88
2022-12-20T08:06:07.733Z,-11.84
2022-12-20T08:08:10.619Z,-11.73
2022-12-20T08:10:16.616Z,-11.69
2022-12-20T08:12:20.492Z,-11.68
2022-12-20T08:14:23.145Z,-11.67
2022-12-20T08:16:26.573Z,-11.59
2022-12-20T08:18:29.215Z,-11.54
2022-12-20T08:20:32.928Z,-11.53
2022-12-20T08:22:35.882Z,-11.55
2022-12-20T08:24:38.630Z,-11.44
2022-12-20T08:26:42.363Z,-11.35
2022-12-20T08:28:45.042Z,-11.27
2022-12-20T08:30:47.832Z,-11.22
2022-12-20T08:32:50.504Z,-11.20
2022-12-20T08:34:53.861Z,-11.17
2022-12-20T08:36:56.448Z,-11.09
2022-12-20T08:38:58.986Z,-11.17
2022-12-20T08:41:09.036Z,-11.17
2022-12-20T08:43:11.696Z,-11.18
2022-12-20T08:45:14.455Z,-11.20
2022-12-20T08:47:17.039Z,-11.17
2022-12-20T08:49:19.871Z,-11.08
2022-12-20T08:51:22.666Z,-10.93
2022-12-20T08:53:25.543Z,-10.84
2022-12-20T08:55:29.579Z,-10.78
2022-12-20T08:57:32.765Z,-10.76
2022-12-20T08:59:35.361Z,-10.68
2022-12-20T09:01:38.066Z,-10.57
2022-12-20T09:03:41.539Z,-10.54
2022-12-20T09:05:46.408Z,-10.53
2022-12-20T09:07:49.188Z,-10.54
2022-12-20T09:09:51.809Z,-10.45
2022-12-20T09:11:54.491Z,-10.50
2022-12-20T09:13:59.231Z,-10.50
2022-12-20T09:16:04.797Z,-10.47
2022-12-20T09:18:07.422Z,-10.38
2022-12-20T09:20:10.259Z,-10.41
2022-12-20T09:22:12.960Z,-10.35
2022-12-20T09:24:15.592Z,-10.22
2022-12-20T09:26:19.746Z,-10.16
2022-12-20T09:28:22.981Z,-10.12
2022-12-20T09:30:25.699Z,-10.10
2022-12-20T09:32:28.360Z,-10.10
2022-12-20T09:34:31.114Z,-10.14
2022-12-20T09:36:34.027Z,-10.13
2022-12-20T09:38:36.979Z,-10.12
2022-12-20T09:40:45.737Z,-10.02
2022-12-20T09:42:50.184Z,-9.93
2022-12-20T09:44:53.935Z,-9.93
2022-12-20T09:47:08.245Z,-9.87
2022-12-20T09:49:17.470Z,-9.83
2022-12-20T09:51:20.023Z,-9.86
2022-12-20T09:53:54.444Z,-9.93
2022-12-20T09:56:03.846Z,-9.91
2022-12-20T09:58:25.481Z,-9.91
2022-12-20T10:00:28.736Z,-9.91
2022-12-20T10:04:55.789Z,-10.04
2022-12-20T10:07:22.771Z,-10.06
2022-12-20T10:09:43.444Z,-9.98
2022-12-20T10:11:52.755Z,-9.92
2022-12-20T10:14:13.072Z,-9.97
2022-12-20T10:16:39.540Z,-9.84
2022-12-20T10:19:28.313Z,-9.81
2022-12-20T10:21:44.654Z,-9.74
2022-12-20T10:24:01.712Z,-9.68
2022-12-20T10:26:10.950Z,-9.72
2022-12-20T10:28:16.492Z,-9.67
2022-12-20T10:30:22.161Z,-9.69
2022-12-20T10:32:24.876Z,-9.60
2022-12-20T10:34:33.336Z,-9.56
2022-12-20T10:36:39.247Z,-9.55
2022-12-20T10:38:47.344Z,-9.61
2022-12-20T10:41:21.305Z,-9.57
2022-12-20T10:43:21.991Z,-9.50
2022-12-20T10:45:24.528Z,-9.51
2022-12-20T10:47:34.749Z,-9.53
2022-12-20T10:49:41.290Z,-9.52
2022-12-20T10:51:53.058Z,-9.50
2022-12-20T10:54:02.840Z,-9.45
2022-12-20T10:56:27.579Z,-9.47
2022-12-20T10:58:35.805Z,-9.46
2022-12-20T11:00:38.804Z,-9.53
2022-12-20T11:02:43.004Z,-9.46
2022-12-20T11:05:20.496Z,-9.44
2022-12-20T11:07:27.175Z,-9.41
2022-12-20T11:09:36.119Z,-9.37
2022-12-20T11:11:38.853Z,-9.37
2022-12-20T11:13:41.828Z,-9.34
2022-12-20T11:15:50.233Z,-9.33
2022-12-20T11:18:00.109Z,-9.34
2022-12-20T11:20:44.064Z,-9.28
2022-12-20T11:23:01.845Z,-9.24
2022-12-20T11:25:04.322Z,-9.20
2022-12-20T11:27:43.691Z,-9.16
2022-12-20T11:30:16.287Z,-9.13
2022-12-20T11:32:53.854Z,-9.20
2022-12-20T11:35:19.336Z,-9.17
2022-12-20T11:37:24.782Z,-9.21
2022-12-20T11:39:46.693Z,-9.28
2022-12-20T11:42:29.727Z,-9.30
2022-12-20T11:44:53.934Z,-9.37
2022-12-20T11:47:06.715Z,-9.49
2022-12-20T11:49:33.624Z,-9.45
2022-12-20T11:51:53.499Z,-9.41
2022-12-20T11:54:17.057Z,-9.42
2022-12-20T11:56:29.370Z,-9.40
2022-12-20T11:58:47.455Z,-9.39
2022-12-20T12:01:13.133Z,-9.33
2022-12-20T12:03:29.188Z,-9.30
2022-12-20T12:05:41.937Z,-9.34
2022-12-20T12:07:49.570Z,-9.28
2022-12-20T12:10:25.898Z,-9.21
2022-12-20T12:12:45.564Z,-9.13
2022-12-20T12:15:00.530Z,-9.09
2022-12-20T12:17:21.935Z,-9.02
2022-12-20T12:19:28.474Z,-8.95
2022-12-20T12:21:45.981Z,-8.89
2022-12-20T12:23:55.823Z,-8.83
2022-12-20T12:26:08.076Z,-8.78
2022-12-20T12:28:14.550Z,-8.74
2022-12-20T12:30:18.001Z,-8.70
2022-12-20T12:32:27.297Z,-8.66
2022-12-20T12:34:45.620Z,-8.63
2022-12-20T12:36:48.497Z,-8.58
2022-12-20T12:39:21.745Z,-8.52
2022-12-20T12:41:49.279Z,-8.45
2022-12-20T12:44:00.170Z,-8.49
2022-12-20T12:46:14.196Z,-8.43
2022-12-20T12:48:26.929Z,-8.38
2022-12-20T12:50:34.031Z,-8.37
2022-12-20T12:52:49.693Z,-8.37
2022-12-20T12:54:52.394Z,-8.34
2022-12-20T12:57:21.241Z,-8.29
2022-12-20T12:59:24.442Z,-8.25
2022-12-20T13:01:54.101Z,-8.22
2022-12-20T13:03:56.967Z,-8.15
2022-12-20T13:06:22.357Z,-8.10
2022-12-20T13:08:49.330Z,-8.08
2022-12-20T13:10:51.859Z,-8.04
2022-12-20T13:13:00.018Z,-7.99
2022-12-20T13:15:22.221Z,-7.98
2022-12-20T13:17:45.053Z,-7.96
2022-12-20T13:19:55.820Z,-7.92
2022-12-20T13:22:16.986Z,-7.97
2022-12-20T13:24:42.698Z,-7.85
2022-12-20T13:26:55.861Z,-7.84
2022-12-20T13:29:24.803Z,-7.80
2022-12-20T13:31:27.423Z,-7.77
2022-12-20T13:34:25.504Z,-7.76
2022-12-20T13:36:36.320Z,-7.74
2022-12-20T13:38:59.882Z,-7.71
2022-12-20T13:41:10.807Z,-7.70
2022-12-20T13:43:22.301Z,-7.68
2022-12-20T13:45:26.508Z,-7.67
2022-12-20T13:47:34.891Z,-7.62
2022-12-20T13:49:43.375Z,-7.59
2022-12-20T13:51:46.070Z,-7.56
2022-12-20T13:53:57.131Z,-7.52
2022-12-20T13:56:19.604Z,-7.57
2022-12-20T13:58:36.898Z,-7.56
2022-12-20T14:00:39.970Z,-7.52
2022-12-20T14:02:44.255Z,-7.48
2022-12-20T14:04:56.281Z,-7.46
2022-12-20T14:07:01.934Z,-7.46
2022-12-20T14:09:05.932Z,-7.41
2022-12-20T14:11:11.342Z,-7.37
2022-12-20T14:13:21.371Z,-7.34
2022-12-20T14:15:27.579Z,-7.32
2022-12-20T14:17:32.650Z,-7.30
2022-12-20T14:19:35.263Z,-7.26
2022-12-20T14:21:42.663Z,-7.25
2022-12-20T14:23:50.533Z,-7.17
2022-12-20T14:25:57.336Z,-7.23
2022-12-20T14:28:00.571Z,-7.16
2022-12-20T14:30:05.002Z,-7.13
2022-12-20T14:32:18.781Z,-7.17
2022-12-20T14:34:36.727Z,-7.09
2022-12-20T14:36:46.666Z,-7.07
2022-12-20T14:38:51.708Z,-7.03
2022-12-20T14:40:56.077Z,-7.07
2022-12-20T14:42:58.934Z,-7.03
2022-12-20T14:45:20.079Z,-7.02
2022-12-20T14:47:27.837Z,-6.96
2022-12-20T14:49:36.806Z,-6.93
2022-12-20T14:51:47.018Z,-6.91
2022-12-20T14:53:56.062Z,-6.93
2022-12-20T14:55:58.889Z,-6.89
2022-12-20T14:58:06.074Z,-6.86
2022-12-20T15:00:27.783Z,-6.80
2022-12-20T15:02:59.473Z,-6.83
2022-12-20T15:05:28.022Z,-6.86
2022-12-20T15:07:32.342Z,-6.84
2022-12-20T15:09:34.917Z,-6.82
2022-12-20T15:11:38.589Z,-6.79
2022-12-20T15:13:56.957Z,-6.76
2022-12-20T15:16:27.395Z,-6.72
2022-12-20T15:18:30.600Z,-6.71
2022-12-20T15:20:33.248Z,-6.69
2022-12-20T15:22:35.813Z,-6.67
2022-12-20T15:24:38.449Z,-6.63
2022-12-20T15:26:41.796Z,-6.60
2022-12-20T15:28:44.822Z,-6.59
2022-12-20T15:30:48.771Z,-6.54
2022-12-20T15:32:55.606Z,-6.61
2022-12-20T15:34:58.892Z,-6.51
2022-12-20T15:37:02.735Z,-6.51
2022-12-20T15:39:13.535Z,-6.45
2022-12-20T15:41:37.068Z,-6.43
2022-12-20T15:43:39.753Z,-6.42
2022-12-20T15:45:46.882Z,-6.37
2022-12-20T15:47:49.492Z,-6.31
2022-12-20T15:49:52.309Z,-6.31
2022-12-20T15:51:55.803Z,-6.32
2022-12-20T15:54:00.368Z,-6.27
2022-12-20T15:56:03.433Z,-6.24
2022-12-20T15:58:06.057Z,-6.26
2022-12-20T16:00:10.434Z,-6.23
2022-12-20T16:02:28.103Z,-6.21
2022-12-20T16:04:32.706Z,-6.20
2022-12-20T16:06:35.547Z,-6.16
2022-12-20T16:08:39.253Z,-6.13
2022-12-20T16:10:43.074Z,-6.14
2022-12-20T16:12:45.927Z,-6.06
2022-12-20T16:14:48.525Z,-6.00
2022-12-20T16:17:01.139Z,-6.03
2022-12-20T16:19:04.199Z,-6.02
2022-12-20T16:21:24.878Z,-6.00
2022-12-20T16:23:27.552Z,-5.99
2022-12-20T16:25:33.302Z,-6.02
2022-12-20T16:27:35.975Z,-6.06
2022-12-20T16:29:38.581Z,-6.09
2022-12-20T16:31:43.641Z,-6.09
2022-12-20T16:33:46.316Z,-6.09
2022-12-20T16:35:48.979Z,-6.12
2022-12-20T16:37:51.609Z,-6.06
2022-12-20T16:39:54.216Z,-6.11
2022-12-20T16:41:56.947Z,-6.06
2022-12-20T16:44:01.643Z,-6.05
2022-12-20T16:46:04.492Z,-6.01
2022-12-20T16:48:08.244Z,-5.99
2022-12-20T16:50:12.515Z,-5.97
2022-12-20T16:52:18.888Z,-5.97
2022-12-20T16:54:23.286Z,-5.95
2022-12-20T16:56:27.071Z,-5.98
2022-12-20T16:59:00.135Z,-5.97
2022-12-20T17:00:53.638Z,-5.98
2022-12-20T17:02:57.179Z,-5.98
2022-12-20T17:05:00.889Z,-6.01
2022-12-20T17:07:03.936Z,-6.00
2022-12-20T17:11:32.177Z,-6.05
2022-12-20T17:13:34.783Z,-6.07
2022-12-20T17:15:39.182Z,-6.16
2022-12-20T17:17:41.779Z,-6.14
2022-12-20T17:19:44.401Z,-6.13
2022-12-20T17:24:20.947Z,-6.20
2022-12-20T17:26:29.199Z,-6.20
2022-12-20T17:28:32.024Z,-6.23
2022-12-20T17:30:34.597Z,-6.25
2022-12-20T17:32:37.417Z,-6.22
2022-12-20T17:34:39.932Z,-6.21
2022-12-20T17:36:42.560Z,-6.21
2022-12-20T17:38:45.368Z,-6.25
2022-12-20T17:40:47.956Z,-6.30
2022-12-20T17:42:50.734Z,-6.29
2022-12-20T17:44:53.278Z,-6.26
2022-12-20T17:46:57.191Z,-6.25
2022-12-20T17:48:59.816Z,-6.26
2022-12-20T17:51:03.064Z,-6.23
2022-12-20T17:53:05.634Z,-6.21
2022-12-20T17:55:15.866Z,-6.28
2022-12-20T17:57:18.487Z,-6.29
2022-12-20T17:59:22.516Z,-6.28
2022-12-20T18:01:27.550Z,-6.27
2022-12-20T18:04:02.203Z,-6.23
2022-12-20T18:05:52.850Z,-6.21
2022-12-20T18:07:56.408Z,-6.19
2022-12-20T18:09:59.379Z,-6.17
2022-12-20T18:12:01.940Z,-6.11
2022-12-20T18:14:04.730Z,-6.08
2022-12-20T18:16:08.087Z,-6.01
2022-12-20T18:18:10.645Z,-5.96
2022-12-20T18:20:13.674Z,-5.92
2022-12-20T18:22:16.236Z,-5.94
2022-12-20T18:24:20.134Z,-5.98
2022-12-20T18:26:31.885Z,-5.93
2022-12-20T18:28:36.957Z,-5.90
2022-12-20T18:30:39.577Z,-5.87
2022-12-20T18:32:42.342Z,-5.86
2022-12-20T18:34:45.084Z,-5.89
2022-12-20T18:36:47.771Z,-5.92
2022-12-20T18:38:51.810Z,-5.90
2022-12-20T18:40:54.494Z,-5.94
2022-12-20T18:43:01.069Z,-6.02
2022-12-20T18:45:09.808Z,-6.06
2022-12-20T18:47:12.457Z,-6.09
2022-12-20T18:49:15.099Z,-6.11
2022-12-20T18:51:20.629Z,-6.13
2022-12-20T18:53:23.223Z,-6.17
2022-12-20T18:55:25.874Z,-6.17
2022-12-20T18:57:28.507Z,-6.17
2022-12-20T18:59:31.147Z,-6.13
2022-12-20T19:01:35.199Z,-6.12
2022-12-20T19:03:37.941Z,-6.13
2022-12-20T19:05:41.113Z,-6.12
2022-12-20T19:07:43.761Z,-6.08
2022-12-20T19:09:46.327Z,-6.04
2022-12-20T19:11:54.594Z,-5.99
2022-12-20T19:13:59.445Z,-6.01
2022-12-20T19:16:07.995Z,-5.99
2022-12-20T19:18:10.845Z,-5.98
2022-12-20T19:20:13.596Z,-5.98
2022-12-20T19:22:16.157Z,-5.96
2022-12-20T19:24:18.770Z,-5.94
2022-12-20T19:26:23.562Z,-5.93
2022-12-20T19:28:26.144Z,-5.96
2022-12-20T19:30:30.234Z,-5.94
2022-12-20T19:32:33.093Z,-5.90
2022-12-20T19:34:35.685Z,-5.86
2022-12-20T19:36:40.930Z,-5.86
2022-12-20T19:38:47.693Z,-5.83
2022-12-20T19:40:54.100Z,-5.82
2022-12-20T19:42:56.702Z,-5.80
2022-12-20T19:44:59.403Z,-5.77
2022-12-20T19:47:05.437Z,-5.74
2022-12-20T19:49:08.407Z,-5.76
2022-12-20T19:51:12.833Z,-5.77
2022-12-20T19:53:15.546Z,-5.80
2022-12-20T19:55:18.190Z,-5.81
2022-12-20T19:57:20.760Z,-5.80
2022-12-20T19:59:23.536Z,-5.78
2022-12-20T20:01:27.915Z,-5.77
2022-12-20T20:03:31.116Z,-5.74
2022-12-20T20:05:35.171Z,-5.72
2022-12-20T20:07:37.730Z,-5.71
2022-12-20T20:09:40.274Z,-5.71
2022-12-20T20:11:43.143Z,-5.72
2022-12-20T20:13:46.049Z,-5.71
2022-12-20T20:15:53.068Z,-5.73
2022-12-20T20:17:55.863Z,-5.72
2022-12-20T20:19:58.381Z,-5.75
2022-12-20T20:22:00.922Z,-5.74
2022-12-20T20:24:04.213Z,-5.72
2022-12-20T20:26:13.856Z,-5.72
2022-12-20T20:28:16.581Z,-5.69
2022-12-20T20:30:19.299Z,-5.67
2022-12-20T20:32:21.991Z,-5.67
2022-12-20T20:34:24.630Z,-5.68
2022-12-20T20:36:28.345Z,-5.66
2022-12-20T20:38:33.436Z,-5.67
2022-12-20T20:40:36.192Z,-5.65
2022-12-20T20:42:39.131Z,-5.64
2022-12-20T20:44:41.695Z,-5.65
2022-12-20T20:46:44.557Z,-5.64
2022-12-20T20:48:47.459Z,-5.61
2022-12-20T20:50:50.044Z,-5.60
2022-12-20T20:52:52.655Z,-5.57
2022-12-20T20:54:55.393Z,-5.52
2022-12-20T20:56:57.943Z,-5.53
2022-12-20T20:59:05.816Z,-5.48
2022-12-20T21:01:11.444Z,-5.42
2022-12-20T21:03:14.380Z,-5.42
2022-12-20T21:07:42.747Z,-5.41
2022-12-20T21:09:45.544Z,-5.41
2022-12-20T21:11:48.317Z,-5.40
2022-12-20T21:13:51.281Z,-5.41
2022-12-20T21:15:54.275Z,-5.41
2022-12-20T21:17:56.953Z,-5.42
2022-12-20T21:19:59.697Z,-5.43
2022-12-20T21:22:02.541Z,-5.43
2022-12-20T21:24:05.334Z,-5.42
2022-12-20T21:26:08.027Z,-5.42
2022-12-20T21:28:13.989Z,-5.44
2022-12-20T21:30:20.326Z,-5.47
2022-12-20T21:32:23.056Z,-5.40
2022-12-20T21:34:25.720Z,-5.43
2022-12-20T21:36:28.407Z,-5.43
2022-12-20T21:38:31.431Z,-5.46
2022-12-20T21:40:34.034Z,-5.45
2022-12-20T21:42:36.857Z,-5.43
2022-12-20T21:44:39.497Z,-5.43
2022-12-20T21:46:42.230Z,-5.45
2022-12-20T21:49:03.767Z,-5.46
2022-12-20T21:51:27.135Z,-5.46
2022-12-20T21:53:31.085Z,-5.46
2022-12-20T21:55:33.718Z,-5.45
2022-12-20T21:57:36.341Z,-5.44
2022-12-20T21:59:38.863Z,-5.44
2022-12-20T22:01:41.788Z,-5.46
2022-12-20T22:03:44.870Z,-5.45
2022-12-20T22:05:48.789Z,-5.48
2022-12-20T22:07:51.341Z,-5.47
2022-12-20T22:09:53.894Z,-5.46
2022-12-20T22:11:56.716Z,-5.46
2022-12-20T22:13:59.583Z,-5.48
2022-12-20T22:16:19.940Z,-5.44
2022-12-20T22:18:24.206Z,-5.42
2022-12-20T22:20:26.778Z,-5.40
2022-12-20T22:22:29.386Z,-5.44
2022-12-20T22:24:32.037Z,-5.45
2022-12-20T22:26:36.050Z,-5.47
2022-12-20T22:28:40.230Z,-5.47
2022-12-20T22:30:43.322Z,-5.46
2022-12-20T22:32:45.985Z,-5.46
2022-12-20T22:34:48.955Z,-5.44
2022-12-20T22:36:51.598Z,-5.49
2022-12-20T22:38:55.958Z,-5.44
2022-12-20T22:41:22.499Z,-5.44
2022-12-20T22:43:26.193Z,-5.42
2022-12-20T22:45:28.888Z,-5.41
2022-12-20T22:47:31.555Z,-5.46
2022-12-20T22:49:34.149Z,-5.48
2022-12-20T22:51:36.712Z,-5.50
2022-12-20T22:53:40.452Z,-5.49
2022-12-20T22:55:42.982Z,-5.52
2022-12-20T22:57:45.529Z,-5.53
2022-12-20T22:59:48.230Z,-5.56
2022-12-20T23:01:50.987Z,-5.52
2022-12-20T23:03:53.797Z,-5.56
2022-12-20T23:05:59.021Z,-5.55
2022-12-20T23:08:01.640Z,-5.55
2022-12-20T23:10:04.555Z,-5.60
2022-12-20T23:12:27.024Z,-5.62
2022-12-20T23:14:48.424Z,-5.63
2022-12-20T23:16:51.340Z,-5.62
2022-12-20T23:18:55.767Z,-5.62
2022-12-20T23:21:16.984Z,-5.63
2022-12-20T23:23:19.497Z,-5.64
2022-12-20T23:25:22.119Z,-5.70
2022-12-20T23:27:25.179Z,-5.72
2022-12-20T23:29:28.110Z,-5.68
2022-12-20T23:31:31.884Z,-5.69
2022-12-20T23:33:35.103Z,-5.67
2022-12-20T23:35:37.778Z,-5.68
2022-12-20T23:37:40.704Z,-5.71
2022-12-20T23:39:43.299Z,-5.71
2022-12-20T23:41:46.505Z,-5.70
2022-12-20T23:43:49.129Z,-5.69
2022-12-20T23:45:51.804Z,-5.69
2022-12-20T23:47:54.417Z,-5.65
2022-12-20T23:49:57.132Z,-5.65
2022-12-20T23:51:59.672Z,-5.70
2022-12-20T23:54:02.359Z,-5.80
2022-12-20T23:56:05.195Z,-5.82
2022-12-20T23:58:07.830Z,-5.78
